sensor_id;sensor_type;location;lat;lon;timestamp;pressure;altitude;pressure_sealevel;temperature;humidity
54236;BME280;40151;43.606;1.472;2023-04-12T00:01:00;99138.22;;;21.00;52.68
54236;BME280;40151;43.606;1.472;2023-04-12T00:03:26;99130.38;;;20.98;52.73
54236;BME280;40151;43.606;1.472;2023-04-12T00:05:51;99124.22;;;20.98;52.85
54236;BME280;40151;43.606;1.472;2023-04-12T00:08:19;99122.53;;;20.97;52.97
54236;BME280;40151;43.606;1.472;2023-04-12T00:10:50;99115.53;;;20.96;52.79
54236;BME280;40151;43.606;1.472;2023-04-12T00:13:16;99103.19;;;20.95;52.76
54236;BME280;40151;43.606;1.472;2023-04-12T00:15:42;99092.56;;;20.95;52.65
54236;BME280;40151;43.606;1.472;2023-04-12T00:18:07;99097.88;;;20.95;52.94
54236;BME280;40151;43.606;1.472;2023-04-12T00:20:32;99089.00;;;20.96;53.27
54236;BME280;40151;43.606;1.472;2023-04-12T00:22:58;99081.97;;;20.95;53.49
54236;BME280;40151;43.606;1.472;2023-04-12T00:25:23;99081.97;;;20.95;53.59
54236;BME280;40151;43.606;1.472;2023-04-12T00:27:49;99076.66;;;20.95;53.40
54236;BME280;40151;43.606;1.472;2023-04-12T00:30:14;99074.13;;;20.93;53.51
54236;BME280;40151;43.606;1.472;2023-04-12T00:32:41;99074.22;;;20.91;53.43
54236;BME280;40151;43.606;1.472;2023-04-12T00:35:06;99071.59;;;20.91;53.37
54236;BME280;40151;43.606;1.472;2023-04-12T00:37:32;99066.28;;;20.91;53.22
54236;BME280;40151;43.606;1.472;2023-04-12T00:39:58;99062.88;;;20.89;53.29
54236;BME280;40151;43.606;1.472;2023-04-12T00:42:24;99050.38;;;20.91;53.22
54236;BME280;40151;43.606;1.472;2023-04-12T00:44:49;99041.66;;;20.89;53.54
54236;BME280;40151;43.606;1.472;2023-04-12T00:47:15;99039.94;;;20.88;53.49
54236;BME280;40151;43.606;1.472;2023-04-12T00:49:40;99032.94;;;20.87;53.42
54236;BME280;40151;43.606;1.472;2023-04-12T00:52:07;99027.66;;;20.87;53.41
54236;BME280;40151;43.606;1.472;2023-04-12T00:54:34;99029.47;;;20.87;53.46
54236;BME280;40151;43.606;1.472;2023-04-12T00:57:00;99029.56;;;20.85;53.58
54236;BME280;40151;43.606;1.472;2023-04-12T00:59:26;99017.22;;;20.84;53.41
54236;BME280;40151;43.606;1.472;2023-04-12T01:01:55;99014.56;;;20.84;53.41
54236;BME280;40151;43.606;1.472;2023-04-12T01:04:21;99007.47;;;20.85;53.47
54236;BME280;40151;43.606;1.472;2023-04-12T01:17:13;98990.06;;;20.81;53.48
54236;BME280;40151;43.606;1.472;2023-04-12T01:20:00;98991.78;;;20.82;53.39
54236;BME280;40151;43.606;1.472;2023-04-12T01:27:56;98966.31;;;20.79;53.19
54236;BME280;40151;43.606;1.472;2023-04-12T01:30:26;98967.38;;;20.76;53.31
54236;BME280;40151;43.606;1.472;2023-04-12T01:32:53;98959.50;;;20.75;53.32
54236;BME280;40151;43.606;1.472;2023-04-12T01:35:20;98953.38;;;20.74;53.32
54236;BME280;40151;43.606;1.472;2023-04-12T01:37:46;98949.13;;;20.72;53.35
54236;BME280;40151;43.606;1.472;2023-04-12T01:40:12;98941.91;;;20.74;53.38
54236;BME280;40151;43.606;1.472;2023-04-12T01:42:38;98940.22;;;20.73;53.38
54236;BME280;40151;43.606;1.472;2023-04-12T01:45:05;98924.41;;;20.71;53.52
54236;BME280;40151;43.606;1.472;2023-04-12T01:47:32;98934.16;;;20.71;53.33
54236;BME280;40151;43.606;1.472;2023-04-12T01:50:15;98934.16;;;20.71;53.65
54236;BME280;40151;43.606;1.472;2023-04-12T01:52:58;98920.16;;;20.69;53.40
54236;BME280;40151;43.606;1.472;2023-04-12T01:55:28;98927.25;;;20.68;53.18
54236;BME280;40151;43.606;1.472;2023-04-12T01:57:55;98907.88;;;20.68;53.40
54236;BME280;40151;43.606;1.472;2023-04-12T02:00:22;98912.44;;;20.65;53.35
54236;BME280;40151;43.606;1.472;2023-04-12T02:02:48;98905.41;;;20.64;53.49
54236;BME280;40151;43.606;1.472;2023-04-12T02:05:13;98914.31;;;20.63;53.48
54236;BME280;40151;43.606;1.472;2023-04-12T02:07:39;98906.38;;;20.63;53.29
54236;BME280;40151;43.606;1.472;2023-04-12T02:10:06;98902.03;;;20.62;53.53
54236;BME280;40151;43.606;1.472;2023-04-12T02:12:31;98893.97;;;20.64;53.21
54236;BME280;40151;43.606;1.472;2023-04-12T02:14:57;98886.13;;;20.62;53.49
54236;BME280;40151;43.606;1.472;2023-04-12T02:17:22;98890.56;;;20.62;53.38
54236;BME280;40151;43.606;1.472;2023-04-12T02:19:48;98895.03;;;20.61;53.31
54236;BME280;40151;43.606;1.472;2023-04-12T02:22:14;98889.94;;;20.58;53.50
54236;BME280;40151;43.606;1.472;2023-04-12T02:24:40;98888.97;;;20.59;53.40
54236;BME280;40151;43.606;1.472;2023-04-12T02:27:05;98888.13;;;20.59;53.34
54236;BME280;40151;43.606;1.472;2023-04-12T02:29:31;98884.63;;;20.58;53.25
54236;BME280;40151;43.606;1.472;2023-04-12T02:31:56;98875.06;;;20.56;53.32
54236;BME280;40151;43.606;1.472;2023-04-12T02:34:21;98874.25;;;20.55;53.13
54236;BME280;40151;43.606;1.472;2023-04-12T02:36:48;98868.19;;;20.53;53.35
54236;BME280;40151;43.606;1.472;2023-04-12T02:39:13;98873.38;;;20.55;53.17
54236;BME280;40151;43.606;1.472;2023-04-12T02:41:42;98867.44;;;20.51;53.36
54236;BME280;40151;43.606;1.472;2023-04-12T02:44:08;98867.44;;;20.51;53.41
54236;BME280;40151;43.606;1.472;2023-04-12T02:46:33;98869.16;;;20.52;53.18
54236;BME280;40151;43.606;1.472;2023-04-12T02:48:59;98861.28;;;20.50;53.25
54236;BME280;40151;43.606;1.472;2023-04-12T02:51:24;98853.66;;;20.46;53.46
54236;BME280;40151;43.606;1.472;2023-04-12T02:53:50;98858.78;;;20.49;53.16
54236;BME280;40151;43.606;1.472;2023-04-12T02:56:15;98851.97;;;20.45;53.14
54236;BME280;40151;43.606;1.472;2023-04-12T02:58:43;98845.72;;;20.46;53.25
54236;BME280;40151;43.606;1.472;2023-04-12T03:01:08;98836.94;;;20.45;53.26
54236;BME280;40151;43.606;1.472;2023-04-12T03:03:37;98838.72;;;20.45;53.20
54236;BME280;40151;43.606;1.472;2023-04-12T03:06:03;98839.69;;;20.44;53.40
54236;BME280;40151;43.606;1.472;2023-04-12T03:08:29;98836.06;;;20.45;53.23
54236;BME280;40151;43.606;1.472;2023-04-12T03:10:55;98833.53;;;20.43;53.11
54236;BME280;40151;43.606;1.472;2023-04-12T03:13:21;98837.03;;;20.44;53.01
54236;BME280;40151;43.606;1.472;2023-04-12T03:15:47;98833.63;;;20.42;53.21
54236;BME280;40151;43.606;1.472;2023-04-12T03:18:14;98824.84;;;20.41;53.25
54236;BME280;40151;43.606;1.472;2023-04-12T03:20:40;98835.44;;;20.41;53.12
54236;BME280;40151;43.606;1.472;2023-04-12T03:23:08;98836.50;;;20.38;53.08
54236;BME280;40151;43.606;1.472;2023-04-12T03:25:33;98839.03;;;20.40;53.22
54236;BME280;40151;43.606;1.472;2023-04-12T03:27:58;98833.75;;;20.40;53.08
54236;BME280;40151;43.606;1.472;2023-04-12T03:30:24;98837.34;;;20.39;53.24
54236;BME280;40151;43.606;1.472;2023-04-12T03:32:49;98830.34;;;20.38;52.98
54236;BME280;40151;43.606;1.472;2023-04-12T03:35:15;98820.78;;;20.35;53.12
54236;BME280;40151;43.606;1.472;2023-04-12T03:37:41;98819.09;;;20.34;53.34
54236;BME280;40151;43.606;1.472;2023-04-12T03:40:07;98808.72;;;20.31;53.24
54236;BME280;40151;43.606;1.472;2023-04-12T03:42:34;98805.97;;;20.33;53.25
54236;BME280;40151;43.606;1.472;2023-04-12T03:44:59;98793.66;;;20.32;53.15
54236;BME280;40151;43.606;1.472;2023-04-12T03:47:25;98806.81;;;20.33;53.13
54236;BME280;40151;43.606;1.472;2023-04-12T03:49:50;98806.81;;;20.33;53.07
54236;BME280;40151;43.606;1.472;2023-04-12T03:52:19;98800.69;;;20.33;53.14
54236;BME280;40151;43.606;1.472;2023-04-12T03:54:44;98801.59;;;20.32;53.21
54236;BME280;40151;43.606;1.472;2023-04-12T03:57:10;98796.31;;;20.32;53.19
54236;BME280;40151;43.606;1.472;2023-04-12T03:59:35;98785.84;;;20.30;53.13
54236;BME280;40151;43.606;1.472;2023-04-12T04:02:00;98789.41;;;20.29;53.31
54236;BME280;40151;43.606;1.472;2023-04-12T04:04:26;98785.84;;;20.30;53.11
54236;BME280;40151;43.606;1.472;2023-04-12T04:06:52;98790.38;;;20.28;53.12
54236;BME280;40151;43.606;1.472;2023-04-12T04:09:18;98786.91;;;20.28;53.14
54236;BME280;40151;43.606;1.472;2023-04-12T04:11:44;98791.34;;;20.27;53.08
54236;BME280;40151;43.606;1.472;2023-04-12T04:14:09;98798.31;;;20.28;53.18
54236;BME280;40151;43.606;1.472;2023-04-12T04:16:35;98793.25;;;20.25;53.17
54236;BME280;40151;43.606;1.472;2023-04-12T04:19:00;98793.34;;;20.23;53.19
54236;BME280;40151;43.606;1.472;2023-04-12T04:21:26;98790.72;;;20.23;53.30
54236;BME280;40151;43.606;1.472;2023-04-12T04:23:54;98795.16;;;20.23;53.34
54236;BME280;40151;43.606;1.472;2023-04-12T04:26:22;98800.44;;;20.23;53.09
54236;BME280;40151;43.606;1.472;2023-04-12T04:28:58;98801.41;;;20.22;53.00
54236;BME280;40151;43.606;1.472;2023-04-12T04:31:29;98798.75;;;20.22;53.12
54236;BME280;40151;43.606;1.472;2023-04-12T04:34:04;98811.03;;;20.23;52.91
54236;BME280;40151;43.606;1.472;2023-04-12T04:36:32;98811.16;;;20.21;52.99
54236;BME280;40151;43.606;1.472;2023-04-12T04:38:58;98812.97;;;20.21;53.10
54236;BME280;40151;43.606;1.472;2023-04-12T04:41:24;98815.69;;;20.19;52.86
54236;BME280;40151;43.606;1.472;2023-04-12T04:43:50;98812.22;;;20.19;53.04
54236;BME280;40151;43.606;1.472;2023-04-12T04:46:16;98806.16;;;20.17;53.12
54236;BME280;40151;43.606;1.472;2023-04-12T04:48:45;98802.56;;;20.18;53.18
54236;BME280;40151;43.606;1.472;2023-04-12T04:51:11;98807.84;;;20.18;53.31
54236;BME280;40151;43.606;1.472;2023-04-12T04:53:37;98805.31;;;20.16;53.07
54236;BME280;40151;43.606;1.472;2023-04-12T04:56:02;98799.16;;;20.16;53.20
54236;BME280;40151;43.606;1.472;2023-04-12T04:58:28;98804.47;;;20.16;53.27
54236;BME280;40151;43.606;1.472;2023-04-12T05:00:56;98807.13;;;20.16;53.28
54236;BME280;40151;43.606;1.472;2023-04-12T05:03:22;98819.53;;;20.15;53.49
54236;BME280;40151;43.606;1.472;2023-04-12T05:05:50;98823.00;;;20.16;53.46
54236;BME280;40151;43.606;1.472;2023-04-12T05:08:16;98818.66;;;20.15;53.83
54236;BME280;40151;43.606;1.472;2023-04-12T05:10:42;98820.59;;;20.12;53.96
54236;BME280;40151;43.606;1.472;2023-04-12T05:13:08;98818.88;;;20.11;53.87
54236;BME280;40151;43.606;1.472;2023-04-12T05:15:34;98822.47;;;20.10;53.63
54236;BME280;40151;43.606;1.472;2023-04-12T05:18:00;98833.06;;;20.10;54.17
54236;BME280;40151;43.606;1.472;2023-04-12T05:20:25;98830.31;;;20.12;56.37
54236;BME280;40151;43.606;1.472;2023-04-12T05:22:50;98832.88;;;20.14;57.29
54236;BME280;40151;43.606;1.472;2023-04-12T05:25:16;98832.88;;;20.14;57.16
54236;BME280;40151;43.606;1.472;2023-04-12T05:27:43;98832.88;;;20.14;57.65
54236;BME280;40151;43.606;1.472;2023-04-12T05:30:08;98837.94;;;20.17;57.47
54236;BME280;40151;43.606;1.472;2023-04-12T05:32:34;98822.06;;;20.17;57.88
54236;BME280;40151;43.606;1.472;2023-04-12T05:34:59;98827.34;;;20.17;58.04
54236;BME280;40151;43.606;1.472;2023-04-12T05:37:25;98827.34;;;20.17;57.96
54236;BME280;40151;43.606;1.472;2023-04-12T05:39:52;98820.38;;;20.16;57.79
54236;BME280;40151;43.606;1.472;2023-04-12T05:42:17;98820.16;;;20.19;57.60
54236;BME280;40151;43.606;1.472;2023-04-12T05:44:42;98809.56;;;20.19;57.39
54236;BME280;40151;43.606;1.472;2023-04-12T05:47:09;98811.25;;;20.20;57.47
54236;BME280;40151;43.606;1.472;2023-04-12T05:49:34;98806.16;;;20.17;57.46
54236;BME280;40151;43.606;1.472;2023-04-12T05:52:01;98801.09;;;20.14;57.35
54236;BME280;40151;43.606;1.472;2023-04-12T05:54:26;98796.75;;;20.12;57.10
54236;BME280;40151;43.606;1.472;2023-04-12T05:56:52;98804.47;;;20.16;57.21
54236;BME280;40151;43.606;1.472;2023-04-12T05:59:19;98808.16;;;20.13;56.84
54236;BME280;40151;43.606;1.472;2023-04-12T06:01:45;98815.06;;;20.16;57.00
54236;BME280;40151;43.606;1.472;2023-04-12T06:04:10;98810.00;;;20.12;56.89
54236;BME280;40151;43.606;1.472;2023-04-12T06:06:36;98808.25;;;20.11;56.85
54236;BME280;40151;43.606;1.472;2023-04-12T06:09:02;98813.56;;;20.11;56.72
54236;BME280;40151;43.606;1.472;2023-04-12T06:11:29;98811.69;;;20.14;56.65
54236;BME280;40151;43.606;1.472;2023-04-12T06:13:55;98823.09;;;20.14;56.54
54236;BME280;40151;43.606;1.472;2023-04-12T06:16:21;98824.94;;;20.14;56.22
54236;BME280;40151;43.606;1.472;2023-04-12T06:18:46;98830.22;;;20.14;56.34
54236;BME280;40151;43.606;1.472;2023-04-12T06:21:12;98834.56;;;20.15;56.49
54236;BME280;40151;43.606;1.472;2023-04-12T06:23:37;98839.84;;;20.15;56.43
54236;BME280;40151;43.606;1.472;2023-04-12T06:26:03;98845.25;;;20.13;56.55
54236;BME280;40151;43.606;1.472;2023-04-12T06:28:28;98849.59;;;20.14;56.25
54236;BME280;40151;43.606;1.472;2023-04-12T06:30:54;98847.06;;;20.12;56.44
54236;BME280;40151;43.606;1.472;2023-04-12T06:33:19;98850.66;;;20.11;56.51
54236;BME280;40151;43.606;1.472;2023-04-12T06:35:47;98855.94;;;20.11;56.43
54236;BME280;40151;43.606;1.472;2023-04-12T06:38:12;98855.13;;;20.11;56.46
54236;BME280;40151;43.606;1.472;2023-04-12T06:40:38;98861.25;;;20.11;56.29
54236;BME280;40151;43.606;1.472;2023-04-12T06:43:03;98864.84;;;20.10;56.37
54236;BME280;40151;43.606;1.472;2023-04-12T06:45:29;98865.63;;;20.12;56.39
54236;BME280;40151;43.606;1.472;2023-04-12T06:47:54;98857.66;;;20.12;56.23
54236;BME280;40151;43.606;1.472;2023-04-12T06:50:21;98859.53;;;20.10;56.46
54236;BME280;40151;43.606;1.472;2023-04-12T06:52:46;98857.66;;;20.12;56.03
54236;BME280;40151;43.606;1.472;2023-04-12T06:55:13;98860.41;;;20.11;56.03
54236;BME280;40151;43.606;1.472;2023-04-12T06:57:40;98860.50;;;20.09;56.14
54236;BME280;40151;43.606;1.472;2023-04-12T07:00:07;98864.84;;;20.10;55.96
54236;BME280;40151;43.606;1.472;2023-04-12T07:02:33;98849.81;;;20.11;56.00
54236;BME280;40151;43.606;1.472;2023-04-12T07:04:58;98857.75;;;20.11;55.95
54236;BME280;40151;43.606;1.472;2023-04-12T07:07:23;98851.69;;;20.09;55.79
54236;BME280;40151;43.606;1.472;2023-04-12T07:09:49;98849.72;;;20.12;55.53
54236;BME280;40151;43.606;1.472;2023-04-12T07:12:16;98848.94;;;20.10;55.70
54236;BME280;40151;43.606;1.472;2023-04-12T07:14:41;98840.06;;;20.11;55.45
54236;BME280;40151;43.606;1.472;2023-04-12T07:17:07;98835.72;;;20.10;55.53
54236;BME280;40151;43.606;1.472;2023-04-12T07:19:32;98832.97;;;20.12;55.38
54236;BME280;40151;43.606;1.472;2023-04-12T07:21:57;98828.63;;;20.11;55.14
54236;BME280;40151;43.606;1.472;2023-04-12T07:24:23;98827.75;;;20.10;55.33
54236;BME280;40151;43.606;1.472;2023-04-12T07:26:49;98822.28;;;20.14;55.19
54236;BME280;40151;43.606;1.472;2023-04-12T07:29:16;98824.16;;;20.11;55.14
54236;BME280;40151;43.606;1.472;2023-04-12T07:31:42;98831.28;;;20.11;55.22
54236;BME280;40151;43.606;1.472;2023-04-12T07:34:07;98827.56;;;20.14;55.19
54236;BME280;40151;43.606;1.472;2023-04-12T07:36:32;98815.28;;;20.12;54.93
54236;BME280;40151;43.606;1.472;2023-04-12T07:38:58;98813.38;;;20.15;54.90
54236;BME280;40151;43.606;1.472;2023-04-12T07:41:23;98810.00;;;20.12;55.05
54236;BME280;40151;43.606;1.472;2023-04-12T07:43:49;98807.34;;;20.12;54.78
54236;BME280;40151;43.606;1.472;2023-04-12T07:46:14;98810.09;;;20.11;54.76
54236;BME280;40151;43.606;1.472;2023-04-12T07:48:39;98799.41;;;20.12;54.71
54236;BME280;40151;43.606;1.472;2023-04-12T07:51:05;98788.03;;;20.10;54.87
54236;BME280;40151;43.606;1.472;2023-04-12T07:53:30;98794.28;;;20.09;54.85
54236;BME280;40151;43.606;1.472;2023-04-12T07:55:56;98802.03;;;20.12;54.70
54236;BME280;40151;43.606;1.472;2023-04-12T07:58:22;98801.28;;;20.10;54.64
54236;BME280;40151;43.606;1.472;2023-04-12T08:00:49;98807.44;;;20.11;54.61
54236;BME280;40151;43.606;1.472;2023-04-12T08:03:16;98801.19;;;20.12;54.72
54236;BME280;40151;43.606;1.472;2023-04-12T08:05:42;98801.28;;;20.10;54.64
54236;BME280;40151;43.606;1.472;2023-04-12T08:08:08;98804.03;;;20.09;54.61
54236;BME280;40151;43.606;1.472;2023-04-12T08:10:35;98811.88;;;20.10;54.55
54236;BME280;40151;43.606;1.472;2023-04-12T08:13:01;98820.78;;;20.09;54.48
54236;BME280;40151;43.606;1.472;2023-04-12T08:15:27;98818.22;;;20.08;54.43
54236;BME280;40151;43.606;1.472;2023-04-12T08:17:52;98829.69;;;20.08;54.47
54236;BME280;40151;43.606;1.472;2023-04-12T08:20:18;98824.28;;;20.10;54.49
54236;BME280;40151;43.606;1.472;2023-04-12T08:22:44;98822.47;;;20.10;54.52
54236;BME280;40151;43.606;1.472;2023-04-12T08:25:11;98833.81;;;20.12;54.30
54236;BME280;40151;43.606;1.472;2023-04-12T08:27:40;98818.03;;;20.11;54.41
54236;BME280;40151;43.606;1.472;2023-04-12T08:30:06;98824.38;;;20.08;54.30
54236;BME280;40151;43.606;1.472;2023-04-12T08:32:31;98829.69;;;20.08;54.26
54236;BME280;40151;43.606;1.472;2023-04-12T08:34:56;98837.63;;;20.08;53.96
54236;BME280;40151;43.606;1.472;2023-04-12T08:37:22;98836.66;;;20.09;54.11
54236;BME280;40151;43.606;1.472;2023-04-12T08:39:47;98838.34;;;20.10;54.19
54236;BME280;40151;43.606;1.472;2023-04-12T08:42:14;98839.41;;;20.08;54.21
54236;BME280;40151;43.606;1.472;2023-04-12T08:44:41;98841.97;;;20.09;54.01
54236;BME280;40151;43.606;1.472;2023-04-12T08:47:09;98835.81;;;20.09;54.20
54236;BME280;40151;43.606;1.472;2023-04-12T08:49:35;98839.13;;;20.12;53.84
54236;BME280;40151;43.606;1.472;2023-04-12T08:52:05;98828.63;;;20.11;54.23
54236;BME280;40151;43.606;1.472;2023-04-12T08:54:34;98833.94;;;20.11;54.13
54236;BME280;40151;43.606;1.472;2023-04-12T08:57:05;98832.09;;;20.11;53.97
54236;BME280;40151;43.606;1.472;2023-04-12T08:59:33;98840.06;;;20.11;53.87
54236;BME280;40151;43.606;1.472;2023-04-12T09:01:59;98841.97;;;20.09;54.00
54236;BME280;40151;43.606;1.472;2023-04-12T09:04:25;98835.63;;;20.12;53.71
54236;BME280;40151;43.606;1.472;2023-04-12T09:06:51;98833.06;;;20.10;53.71
54236;BME280;40151;43.606;1.472;2023-04-12T09:09:16;98831.19;;;20.12;53.80
54236;BME280;40151;43.606;1.472;2023-04-12T09:11:42;98833.06;;;20.10;53.90
54236;BME280;40151;43.606;1.472;2023-04-12T09:14:21;98834.75;;;20.11;53.67
54236;BME280;40151;43.606;1.472;2023-04-12T09:16:47;98832.00;;;20.13;53.61
54236;BME280;40151;43.606;1.472;2023-04-12T09:19:13;98845.34;;;20.11;53.62
54236;BME280;40151;43.606;1.472;2023-04-12T09:21:52;98841.56;;;20.16;53.56
54236;BME280;40151;43.606;1.472;2023-04-12T09:24:18;98832.88;;;20.14;53.62
54236;BME280;40151;43.606;1.472;2023-04-12T09:26:48;98834.75;;;20.11;53.76
54236;BME280;40151;43.606;1.472;2023-04-12T09:29:22;98838.16;;;20.14;53.67
54236;BME280;40151;43.606;1.472;2023-04-12T09:32:05;98838.91;;;20.16;53.55
54236;BME280;40151;43.606;1.472;2023-04-12T09:34:32;98835.41;;;20.15;53.53
54236;BME280;40151;43.606;1.472;2023-04-12T09:36:59;98831.81;;;20.16;53.47
54236;BME280;40151;43.606;1.472;2023-04-12T09:39:32;98830.13;;;20.15;53.70
54236;BME280;40151;43.606;1.472;2023-04-12T09:42:08;98833.59;;;20.16;53.48
54236;BME280;40151;43.606;1.472;2023-04-12T09:44:34;98842.28;;;20.18;53.61
54236;BME280;40151;43.606;1.472;2023-04-12T09:47:00;98837.75;;;20.20;53.45
54236;BME280;40151;43.606;1.472;2023-04-12T09:49:39;98837.75;;;20.20;53.56
54236;BME280;40151;43.606;1.472;2023-04-12T09:52:06;98839.44;;;20.21;53.41
54236;BME280;40151;43.606;1.472;2023-04-12T09:54:52;98834.16;;;20.21;53.33
54236;BME280;40151;43.606;1.472;2023-04-12T09:57:19;98829.72;;;20.21;53.24
54236;BME280;40151;43.606;1.472;2023-04-12T09:59:48;98835.66;;;20.25;53.28
54236;BME280;40151;43.606;1.472;2023-04-12T10:02:17;98839.88;;;20.28;53.34
54236;BME280;40151;43.606;1.472;2023-04-12T10:04:43;98839.03;;;20.27;53.14
54236;BME280;40151;43.606;1.472;2023-04-12T10:07:08;98842.41;;;20.29;53.06
54236;BME280;40151;43.606;1.472;2023-04-12T10:09:37;98840.53;;;20.31;52.94
54236;BME280;40151;43.606;1.472;2023-04-12T10:12:03;98844.00;;;20.32;53.01
54236;BME280;40151;43.606;1.472;2023-04-12T10:14:29;98847.72;;;20.29;53.30
54236;BME280;40151;43.606;1.472;2023-04-12T10:17:00;98848.66;;;20.28;53.16
54236;BME280;40151;43.606;1.472;2023-04-12T10:19:28;98847.50;;;20.32;53.11
54236;BME280;40151;43.606;1.472;2023-04-12T10:21:57;98847.59;;;20.31;53.15
54236;BME280;40151;43.606;1.472;2023-04-12T10:24:23;98842.22;;;20.32;53.05
54236;BME280;40151;43.606;1.472;2023-04-12T10:26:50;98841.06;;;20.36;52.94
54236;BME280;40151;43.606;1.472;2023-04-12T10:29:28;98834.81;;;20.37;52.97
54236;BME280;40151;43.606;1.472;2023-04-12T10:31:56;98833.13;;;20.36;52.84
54236;BME280;40151;43.606;1.472;2023-04-12T10:34:30;98833.13;;;20.36;52.89
54236;BME280;40151;43.606;1.472;2023-04-12T10:36:58;98822.28;;;20.39;52.79
54236;BME280;40151;43.606;1.472;2023-04-12T10:39:43;98828.44;;;20.40;52.67
54236;BME280;40151;43.606;1.472;2023-04-12T10:42:25;98829.28;;;20.41;52.88
54236;BME280;40151;43.606;1.472;2023-04-12T10:44:56;98826.53;;;20.42;52.60
54236;BME280;40151;43.606;1.472;2023-04-12T10:50:31;98805.34;;;20.42;52.75
54236;BME280;40151;43.606;1.472;2023-04-12T10:53:19;98809.78;;;20.42;52.64
54236;BME280;40151;43.606;1.472;2023-04-12T10:55:46;98807.88;;;20.44;52.75
54236;BME280;40151;43.606;1.472;2023-04-12T11:01:12;98806.94;;;20.45;52.49
54236;BME280;40151;43.606;1.472;2023-04-12T11:04:14;98809.56;;;20.45;52.60
54236;BME280;40151;43.606;1.472;2023-04-12T11:09:42;98797.06;;;20.47;52.45
54236;BME280;40151;43.606;1.472;2023-04-12T11:14:42;98812.94;;;20.47;52.59
54236;BME280;40151;43.606;1.472;2023-04-12T11:19:57;98820.81;;;20.48;52.60
54236;BME280;40151;43.606;1.472;2023-04-12T11:22:26;98818.06;;;20.50;52.58
54236;BME280;40151;43.606;1.472;2023-04-12T11:24:54;98821.66;;;20.49;52.45
54236;BME280;40151;43.606;1.472;2023-04-12T11:27:21;98819.75;;;20.51;52.68
54236;BME280;40151;43.606;1.472;2023-04-12T11:29:51;98818.06;;;20.50;52.71
54236;BME280;40151;43.606;1.472;2023-04-12T11:32:19;98822.41;;;20.51;52.60
54236;BME280;40151;43.606;1.472;2023-04-12T11:34:45;98814.44;;;20.51;52.47
54236;BME280;40151;43.606;1.472;2023-04-12T11:37:12;98817.00;;;20.52;52.43
54236;BME280;40151;43.606;1.472;2023-04-12T11:39:42;98826.75;;;20.52;52.43
54236;BME280;40151;43.606;1.472;2023-04-12T11:42:17;98810.00;;;20.51;52.55
54236;BME280;40151;43.606;1.472;2023-04-12T11:44:43;98810.84;;;20.52;52.49
54236;BME280;40151;43.606;1.472;2023-04-12T11:47:20;98811.59;;;20.54;52.29
54236;BME280;40151;43.606;1.472;2023-04-12T11:49:48;98822.19;;;20.54;52.33
54236;BME280;40151;43.606;1.472;2023-04-12T11:52:15;98823.03;;;20.55;52.30
54236;BME280;40151;43.606;1.472;2023-04-12T11:54:45;98830.97;;;20.55;52.26
54236;BME280;40151;43.606;1.472;2023-04-12T11:57:16;98833.63;;;20.55;52.15
54236;BME280;40151;43.606;1.472;2023-04-12T11:59:43;98830.16;;;20.54;52.18
54236;BME280;40151;43.606;1.472;2023-04-12T12:02:09;98834.50;;;20.55;52.26
54236;BME280;40151;43.606;1.472;2023-04-12T12:04:35;98825.59;;;20.56;52.17
54236;BME280;40151;43.606;1.472;2023-04-12T12:07:01;98842.22;;;20.58;52.27
54236;BME280;40151;43.606;1.472;2023-04-12T12:09:26;98842.22;;;20.58;52.12
54236;BME280;40151;43.606;1.472;2023-04-12T12:11:53;98835.22;;;20.57;52.36
54236;BME280;40151;43.606;1.472;2023-04-12T12:14:22;98839.56;;;20.58;52.15
54236;BME280;40151;43.606;1.472;2023-04-12T12:16:56;98846.56;;;20.59;52.09
54236;BME280;40151;43.606;1.472;2023-04-12T12:19:30;98848.38;;;20.59;52.30
54236;BME280;40151;43.606;1.472;2023-04-12T12:22:16;98841.25;;;20.59;52.09
54236;BME280;40151;43.606;1.472;2023-04-12T12:25:00;98842.00;;;20.61;51.96
54236;BME280;40151;43.606;1.472;2023-04-12T12:27:38;98843.72;;;20.62;52.10
54236;BME280;40151;43.606;1.472;2023-04-12T12:30:07;98843.72;;;20.62;52.10
54236;BME280;40151;43.606;1.472;2023-04-12T12:32:35;98856.00;;;20.63;52.09
54236;BME280;40151;43.606;1.472;2023-04-12T12:35:01;98865.78;;;20.63;52.01
54236;BME280;40151;43.606;1.472;2023-04-12T12:37:29;98863.84;;;20.65;52.00
54236;BME280;40151;43.606;1.472;2023-04-12T12:40:05;98856.88;;;20.64;52.07
54236;BME280;40151;43.606;1.472;2023-04-12T12:42:48;98858.66;;;20.63;51.98
54236;BME280;40151;43.606;1.472;2023-04-12T12:45:15;98864.72;;;20.65;52.01
54236;BME280;40151;43.606;1.472;2023-04-12T12:50:14;98868.28;;;20.64;51.92
54236;BME280;40151;43.606;1.472;2023-04-12T12:52:42;98875.31;;;20.65;51.70
54236;BME280;40151;43.606;1.472;2023-04-12T12:55:08;98880.63;;;20.65;51.98
54236;BME280;40151;43.606;1.472;2023-04-12T12:57:34;98885.91;;;20.65;51.77
54236;BME280;40151;43.606;1.472;2023-04-12T12:59:59;98885.06;;;20.65;51.80
54236;BME280;40151;43.606;1.472;2023-04-12T13:02:25;98900.09;;;20.64;51.87
54236;BME280;40151;43.606;1.472;2023-04-12T13:04:50;98933.75;;;20.64;51.81
54236;BME280;40151;43.606;1.472;2023-04-12T13:07:16;98939.88;;;20.64;51.76
54236;BME280;40151;43.606;1.472;2023-04-12T13:09:41;98953.13;;;20.64;51.53
54236;BME280;40151;43.606;1.472;2023-04-12T13:12:07;98950.59;;;20.63;51.62
54236;BME280;40151;43.606;1.472;2023-04-12T13:14:32;98967.34;;;20.63;51.65
54236;BME280;40151;43.606;1.472;2023-04-12T13:16:57;98969.25;;;20.61;51.74
54236;BME280;40151;43.606;1.472;2023-04-12T13:19:23;98967.56;;;20.60;51.55
54236;BME280;40151;43.606;1.472;2023-04-12T13:21:48;98974.97;;;20.55;51.84
54236;BME280;40151;43.606;1.472;2023-04-12T13:24:14;98986.53;;;20.54;51.61
54236;BME280;40151;43.606;1.472;2023-04-12T13:26:39;98989.38;;;20.51;51.94
54236;BME280;40151;43.606;1.472;2023-04-12T13:29:05;98984.16;;;20.49;51.71
54236;BME280;40151;43.606;1.472;2023-04-12T13:31:30;98982.56;;;20.47;52.04
54236;BME280;40151;43.606;1.472;2023-04-12T13:33:56;98991.47;;;20.46;51.87